createdAt,value
2018-02-17T00:00:56.806Z,71.60
2018-02-17T00:03:25.020Z,72.00
2018-02-17T00:05:53.964Z,72.30
2018-02-17T00:08:22.141Z,72.20
2018-02-17T00:10:50.309Z,72.30
2018-02-17T00:13:18.482Z,72.50
2018-02-17T00:15:46.660Z,72.70
2018-02-17T00:18:14.895Z,72.80
2018-02-17T00:20:43.827Z,73.30
2018-02-17T00:23:11.990Z,73.30
2018-02-17T00:25:40.167Z,73.50
2018-02-17T00:28:08.375Z,73.30
2018-02-17T00:30:37.303Z,73.20
2018-02-17T00:33:06.244Z,73.00
2018-02-17T00:35:34.418Z,72.90
2018-02-17T00:38:02.596Z,73.10
2018-02-17T00:40:30.802Z,73.20
2018-02-17T00:43:01.747Z,73.30
2018-02-17T00:45:29.914Z,73.50
2018-02-17T00:47:58.118Z,74.20
2018-02-17T00:50:26.284Z,74.50
2018-02-17T00:52:54.463Z,74.00
2018-02-17T00:55:22.638Z,74.10
2018-02-17T00:57:50.841Z,74.40
2018-02-17T01:00:19.786Z,74.80
2018-02-17T01:02:47.954Z,74.70
2018-02-17T01:05:16.168Z,74.90
2018-02-17T01:07:44.343Z,75.30
2018-02-17T01:10:12.529Z,75.40
2018-02-17T01:12:41.464Z,75.50
2018-02-17T01:15:09.661Z,75.50
2018-02-17T01:17:37.863Z,75.70
2018-02-17T01:20:06.032Z,75.80
2018-02-17T01:22:34.202Z,75.80
2018-02-17T01:25:02.375Z,75.90
2018-02-17T01:27:30.555Z,76.10
2018-02-17T01:29:58.748Z,76.30
2018-02-17T01:32:27.702Z,76.00
2018-02-17T01:34:55.930Z,75.90
2018-02-17T01:37:24.960Z,75.90
2018-02-17T01:39:53.157Z,75.90
2018-02-17T01:42:21.393Z,76.10
2018-02-17T01:44:49.583Z,76.10
2018-02-17T01:47:17.771Z,75.90
2018-02-17T01:49:45.986Z,75.70
2018-02-17T01:52:14.164Z,76.00
2018-02-17T01:54:43.158Z,76.40
2018-02-17T01:57:11.322Z,76.40
2018-02-17T01:59:39.510Z,76.40
2018-02-17T02:02:08.449Z,76.30
2018-02-17T02:04:36.644Z,76.20
2018-02-17T02:07:04.846Z,76.30
2018-02-17T02:09:33.033Z,76.30
2018-02-17T02:12:01.968Z,76.40
2018-02-17T02:14:30.154Z,76.30
2018-02-17T02:16:58.327Z,76.40
2018-02-17T02:19:26.506Z,76.50
2018-02-17T02:21:54.695Z,76.60
2018-02-17T02:24:22.858Z,76.60
2018-02-17T02:26:51.034Z,76.60
2018-02-17T02:29:19.199Z,76.40
2018-02-17T02:31:47.380Z,76.60
2018-02-17T02:34:15.554Z,76.60
2018-02-17T02:36:44.530Z,76.50
2018-02-17T02:39:12.712Z,76.50
2018-02-17T02:41:40.946Z,76.70
2018-02-17T02:44:09.910Z,77.10
2018-02-17T02:46:38.121Z,77.00
2018-02-17T02:49:07.092Z,78.10
2018-02-17T02:51:35.286Z,77.40
2018-02-17T02:54:04.223Z,77.80
2018-02-17T02:56:32.422Z,77.00
2018-02-17T02:59:00.599Z,77.10
2018-02-17T03:01:28.804Z,77.20
2018-02-17T03:03:57.747Z,77.80
2018-02-17T03:06:25.922Z,77.80
2018-02-17T03:08:54.128Z,77.90
2018-02-17T03:11:22.292Z,78.10
2018-02-17T03:13:50.471Z,78.30
2018-02-17T03:16:18.666Z,78.40
2018-02-17T03:18:47.617Z,78.50
2018-02-17T03:21:15.860Z,78.40
2018-02-17T03:23:44.066Z,78.20
2018-02-17T03:26:12.225Z,78.20
2018-02-17T03:28:40.462Z,77.80
2018-02-17T03:31:09.407Z,78.00
2018-02-17T03:33:37.618Z,78.00
2018-02-17T03:36:05.781Z,78.40
2018-02-17T03:38:33.969Z,78.60
2018-02-17T03:41:02.176Z,78.70
2018-02-17T03:43:30.354Z,79.50
2018-02-17T03:45:58.574Z,78.60
2018-02-17T03:48:26.741Z,78.60
2018-02-17T03:50:55.718Z,78.60
2018-02-17T03:53:23.886Z,78.80
2018-02-17T03:55:52.070Z,78.40
2018-02-17T03:58:20.258Z,78.70
2018-02-17T04:00:48.455Z,78.70
2018-02-17T04:03:16.632Z,78.80
2018-02-17T04:05:44.819Z,78.80
2018-02-17T04:08:13.794Z,79.40
2018-02-17T04:10:41.998Z,79.40
2018-02-17T04:13:10.942Z,80.10
2018-02-17T04:15:39.125Z,80.00
2018-02-17T04:18:07.324Z,80.30
2018-02-17T04:20:36.266Z,80.50
2018-02-17T04:23:04.436Z,80.30
2018-02-17T04:25:32.641Z,80.20
2018-02-17T04:28:00.822Z,80.20
2018-02-17T04:30:28.995Z,80.10
2018-02-17T04:32:57.162Z,80.80
2018-02-17T04:35:25.321Z,80.10
2018-02-17T04:37:54.279Z,79.80
2018-02-17T04:43:26.597Z,79.80
2018-02-17T04:45:55.290Z,79.80
2018-02-17T04:51:43.850Z,80.00
2018-02-17T04:57:15.445Z,79.60
2018-02-17T04:59:47.136Z,79.80
2018-02-17T05:02:21.722Z,79.70
2018-02-17T05:04:55.431Z,79.60
2018-02-17T05:07:24.011Z,79.70
2018-02-17T05:09:52.950Z,79.10
2018-02-17T05:12:21.894Z,79.30
2018-02-17T05:15:04.949Z,79.20
2018-02-17T05:17:39.509Z,79.50
2018-02-17T05:20:07.722Z,79.50
2018-02-17T05:22:36.314Z,79.70
2018-02-17T05:25:11.094Z,80.00
2018-02-17T05:30:41.216Z,80.70
2018-02-17T05:33:21.878Z,80.90
2018-02-17T05:35:56.311Z,81.10
2018-02-17T05:38:25.125Z,81.10
2018-02-17T05:40:54.079Z,81.50
2018-02-17T05:43:23.037Z,81.80
2018-02-17T05:48:49.633Z,81.40
2018-02-17T05:51:18.586Z,81.40
2018-02-17T05:53:46.757Z,81.30
2018-02-17T05:56:14.934Z,81.30
2018-02-17T05:58:43.103Z,81.30
2018-02-17T06:01:11.266Z,81.20
2018-02-17T06:03:39.432Z,81.10
2018-02-17T06:06:07.602Z,81.10
2018-02-17T06:08:35.771Z,80.80
2018-02-17T06:11:03.950Z,80.60
2018-02-17T06:13:32.126Z,80.60
2018-02-17T06:16:00.286Z,80.70
2018-02-17T06:18:28.456Z,80.90
2018-02-17T06:20:56.617Z,81.10
2018-02-17T06:23:25.545Z,81.00
2018-02-17T06:25:53.712Z,80.90
2018-02-17T06:28:21.875Z,80.90
2018-02-17T06:30:50.065Z,80.60
2018-02-17T06:33:18.253Z,80.60
2018-02-17T06:35:46.418Z,81.20
2018-02-17T06:38:14.606Z,80.60
2018-02-17T06:40:43.550Z,79.80
2018-02-17T06:43:11.722Z,79.80
2018-02-17T06:45:40.665Z,78.70
2018-02-17T06:48:08.834Z,78.60
2018-02-17T06:50:36.997Z,78.60
2018-02-17T06:53:05.174Z,78.70
2018-02-17T06:55:33.341Z,78.70
2018-02-17T06:58:01.518Z,78.70
2018-02-17T07:00:29.727Z,78.50
2018-02-17T07:02:57.890Z,78.40
2018-02-17T07:05:26.055Z,78.30
2018-02-17T07:07:54.259Z,78.30
2018-02-17T07:10:22.427Z,78.10
2018-02-17T07:12:50.607Z,77.90
2018-02-17T07:15:18.840Z,78.70
2018-02-17T07:17:47.006Z,78.70
2018-02-17T07:20:15.163Z,76.90
2018-02-17T07:22:43.355Z,76.20
2018-02-17T07:25:11.537Z,76.20
2018-02-17T07:27:39.703Z,75.70
2018-02-17T07:30:07.861Z,75.20
2018-02-17T07:32:36.035Z,75.40
2018-02-17T07:35:04.248Z,75.00
2018-02-17T07:37:32.407Z,74.40
2018-02-17T07:40:00.602Z,73.70
2018-02-17T07:42:28.806Z,73.30
2018-02-17T07:44:56.986Z,73.00
2018-02-17T07:47:25.919Z,72.40
2018-02-17T07:49:54.089Z,72.40
2018-02-17T07:52:22.269Z,72.40
2018-02-17T07:54:50.430Z,72.20
2018-02-17T07:57:18.611Z,71.80
2018-02-17T07:59:46.775Z,71.50
2018-02-17T08:02:14.999Z,71.30
2018-02-17T08:04:43.175Z,72.00
2018-02-17T08:07:11.377Z,71.80
2018-02-17T08:09:40.419Z,70.70
2018-02-17T08:12:08.586Z,70.50
2018-02-17T08:14:36.769Z,70.30
2018-02-17T08:17:04.935Z,70.00
2018-02-17T08:19:33.165Z,69.40
2018-02-17T08:22:01.369Z,69.10
2018-02-17T08:24:29.542Z,69.30
2018-02-17T08:26:57.707Z,68.10
2018-02-17T08:29:26.669Z,67.90
2018-02-17T08:31:54.850Z,67.80
2018-02-17T08:34:23.022Z,69.20
2018-02-17T08:36:51.206Z,68.50
2018-02-17T08:39:19.395Z,68.40
2018-02-17T08:41:48.352Z,67.80
2018-02-17T08:44:16.551Z,67.80
2018-02-17T08:46:45.498Z,67.30
2018-02-17T08:49:13.684Z,67.20
2018-02-17T08:51:41.849Z,66.90
2018-02-17T08:54:10.016Z,66.70
2018-02-17T08:56:38.194Z,66.60
2018-02-17T08:59:06.368Z,66.40
2018-02-17T09:01:34.933Z,66.20
2018-02-17T09:04:03.097Z,66.10
2018-02-17T09:06:32.061Z,66.30
2018-02-17T09:09:00.237Z,66.20
2018-02-17T09:11:28.421Z,66.50
2018-02-17T09:13:57.381Z,66.70
2018-02-17T09:16:25.570Z,66.70
2018-02-17T09:18:54.496Z,66.20
2018-02-17T09:21:22.670Z,64.90
2018-02-17T09:23:51.697Z,64.30
2018-02-17T09:26:19.906Z,64.30
2018-02-17T09:28:48.084Z,64.40
2018-02-17T09:31:16.302Z,64.70
2018-02-17T09:33:44.496Z,63.50
2018-02-17T09:36:12.742Z,63.00
2018-02-17T09:38:41.675Z,63.30
2018-02-17T09:41:09.912Z,63.30
2018-02-17T09:43:38.088Z,63.80
2018-02-17T09:46:06.287Z,63.90
2018-02-17T09:48:34.480Z,64.20
2018-02-17T09:51:02.662Z,64.70
2018-02-17T09:53:30.858Z,65.10
2018-02-17T09:55:59.043Z,65.70
2018-02-17T09:58:27.981Z,63.80
2018-02-17T10:00:56.186Z,63.80
2018-02-17T10:03:24.366Z,64.50
2018-02-17T10:05:52.543Z,65.40
2018-02-17T10:08:20.720Z,64.50
2018-02-17T10:10:48.906Z,62.20
2018-02-17T10:13:17.133Z,60.90
2018-02-17T10:15:45.295Z,60.10
2018-02-17T10:18:13.495Z,59.80
2018-02-17T10:20:41.713Z,60.40
2018-02-17T10:23:09.888Z,61.20
2018-02-17T10:25:38.842Z,62.30
2018-02-17T10:28:07.055Z,62.20
2018-02-17T10:30:35.991Z,61.70
2018-02-17T10:33:04.166Z,61.70
2018-02-17T10:35:32.435Z,60.60
2018-02-17T10:38:00.549Z,59.80
2018-02-17T10:40:28.720Z,58.60
2018-02-17T10:42:57.662Z,57.10
2018-02-17T10:45:25.833Z,57.10
2018-02-17T10:47:54.099Z,56.90
2018-02-17T10:50:23.030Z,57.20
2018-02-17T10:52:51.195Z,57.10
2018-02-17T10:55:19.402Z,57.40
2018-02-17T10:57:47.580Z,58.00
2018-02-17T11:00:15.754Z,57.30
2018-02-17T11:02:43.922Z,54.60
2018-02-17T11:05:12.126Z,53.60
2018-02-17T11:07:41.089Z,53.70
2018-02-17T11:10:09.290Z,53.60
2018-02-17T11:12:37.467Z,53.30
2018-02-17T11:15:06.434Z,51.80
2018-02-17T11:17:34.613Z,51.80
2018-02-17T11:20:02.801Z,51.30
2018-02-17T11:22:30.975Z,50.90
2018-02-17T11:24:59.150Z,49.90
2018-02-17T11:27:27.331Z,49.00
2018-02-17T11:29:55.536Z,46.40
2018-02-17T11:32:23.708Z,45.50
2018-02-17T11:34:51.908Z,44.20
2018-02-17T11:37:20.095Z,41.50
2018-02-17T11:39:48.270Z,38.40
2018-02-17T11:42:16.498Z,35.20
2018-02-17T11:44:45.450Z,37.60
2018-02-17T11:47:13.615Z,37.50
2018-02-17T11:49:41.797Z,37.10
2018-02-17T11:52:09.962Z,37.60
2018-02-17T11:54:38.128Z,38.70
2018-02-17T11:57:06.342Z,35.30
2018-02-17T11:59:34.577Z,33.40
2018-02-17T12:02:03.498Z,32.70
2018-02-17T12:04:31.712Z,32.60
2018-02-17T12:07:00.658Z,37.10
2018-02-17T12:09:28.841Z,37.00
2018-02-17T12:11:57.038Z,36.90
2018-02-17T12:14:26.033Z,36.60
2018-02-17T12:16:55.025Z,35.50
2018-02-17T12:19:23.184Z,35.40
2018-02-17T12:21:51.373Z,35.70
2018-02-17T12:24:20.353Z,36.60
2018-02-17T12:26:48.526Z,36.50
2018-02-17T12:29:16.696Z,36.50
2018-02-17T12:31:44.883Z,35.30
2018-02-17T12:34:13.059Z,30.80
2018-02-17T12:36:42.019Z,32.00
2018-02-17T12:39:10.189Z,31.90
2018-02-17T12:41:38.379Z,33.10
2018-02-17T12:44:07.348Z,35.00
2018-02-17T12:46:35.752Z,34.90
2018-02-17T12:49:03.931Z,33.70
2018-02-17T12:51:32.115Z,30.00
2018-02-17T12:54:00.300Z,28.20
2018-02-17T12:56:28.474Z,29.40
2018-02-17T12:58:56.657Z,32.50
2018-02-17T13:01:25.610Z,35.60
2018-02-17T13:03:53.784Z,35.60
2018-02-17T13:06:21.970Z,35.20
2018-02-17T13:08:50.177Z,35.60
2018-02-17T13:11:19.119Z,34.30
2018-02-17T13:13:47.396Z,34.30
2018-02-17T13:16:16.333Z,34.90
2018-02-17T13:18:45.291Z,37.50
2018-02-17T13:21:13.494Z,37.40
2018-02-17T13:23:41.702Z,39.80
2018-02-17T13:26:09.939Z,42.30
2018-02-17T13:28:38.133Z,43.60
2018-02-17T13:31:07.079Z,44.50
2018-02-17T13:33:35.264Z,44.50
2018-02-17T13:36:03.542Z,43.80
2018-02-17T13:38:31.713Z,42.90
2018-02-17T13:40:59.904Z,43.30
2018-02-17T13:43:28.101Z,44.30
2018-02-17T13:45:57.073Z,46.00
2018-02-17T13:48:25.312Z,45.90
2018-02-17T13:50:53.505Z,47.30
2018-02-17T13:53:21.693Z,47.80
2018-02-17T13:55:49.898Z,48.80
2018-02-17T13:58:18.854Z,50.60
2018-02-17T14:00:47.033Z,51.30
2018-02-17T14:03:15.307Z,51.60
2018-02-17T14:05:44.271Z,51.90
2018-02-17T14:08:12.453Z,51.90
2018-02-17T14:10:40.617Z,52.20
2018-02-17T14:13:08.794Z,52.30
2018-02-17T14:15:36.990Z,52.40
2018-02-17T14:18:05.170Z,52.60
2018-02-17T14:20:33.374Z,52.60
2018-02-17T14:23:02.326Z,53.20
2018-02-17T14:25:30.505Z,53.10
2018-02-17T14:27:58.675Z,53.80
2018-02-17T14:30:26.842Z,54.40
2018-02-17T14:32:55.013Z,55.00
2018-02-17T14:35:23.187Z,55.20
2018-02-17T14:37:51.360Z,55.60
2018-02-17T14:40:19.530Z,56.00
2018-02-17T14:42:47.722Z,56.80
2018-02-17T14:45:15.883Z,57.30
2018-02-17T14:47:44.037Z,57.60
2018-02-17T14:50:12.215Z,58.00
2018-02-17T14:52:40.403Z,58.20
2018-02-17T14:55:08.586Z,58.40
2018-02-17T14:57:36.786Z,58.50
2018-02-17T15:00:05.066Z,59.90
2018-02-17T15:02:33.249Z,59.80
2018-02-17T15:05:01.425Z,59.60
2018-02-17T15:07:29.634Z,58.40
2018-02-17T15:09:57.818Z,58.40
2018-02-17T15:12:25.994Z,58.60
2018-02-17T15:14:54.172Z,59.90
2018-02-17T15:17:22.345Z,59.80
2018-02-17T15:19:50.530Z,59.90
2018-02-17T15:22:18.707Z,59.30
2018-02-17T15:24:46.900Z,59.60
2018-02-17T15:27:15.110Z,60.30
2018-02-17T15:29:44.050Z,61.20
2018-02-17T15:32:12.226Z,61.20
2018-02-17T15:34:40.411Z,61.00
2018-02-17T15:37:08.605Z,61.30
2018-02-17T15:39:36.789Z,61.80
2018-02-17T15:42:04.959Z,62.30
2018-02-17T15:44:33.263Z,62.60
2018-02-17T15:47:01.456Z,64.00
2018-02-17T15:49:29.637Z,63.60
2018-02-17T15:51:57.807Z,63.50
2018-02-17T15:54:25.978Z,63.80
2018-02-17T15:56:54.174Z,64.00
2018-02-17T15:59:22.367Z,63.90
2018-02-17T16:01:50.549Z,64.90
2018-02-17T16:04:18.742Z,64.60
2018-02-17T16:06:46.927Z,64.60
2018-02-17T16:09:15.866Z,65.30
2018-02-17T16:11:44.054Z,65.10
2018-02-17T16:14:12.225Z,65.10
2018-02-17T16:16:40.407Z,65.10
2018-02-17T16:19:08.584Z,65.40
2018-02-17T16:21:36.788Z,65.60
2018-02-17T16:24:04.974Z,64.80
2018-02-17T16:26:33.932Z,65.70
2018-02-17T16:29:02.106Z,65.60
2018-02-17T16:31:30.305Z,65.70
2018-02-17T16:33:58.483Z,65.80
2018-02-17T16:36:26.674Z,65.90
2018-02-17T16:38:55.604Z,66.60
2018-02-17T16:41:23.774Z,66.50
2018-02-17T16:43:51.935Z,66.80
2018-02-17T16:46:20.125Z,66.70
2018-02-17T16:48:48.308Z,66.90
2018-02-17T16:51:16.502Z,67.30
2018-02-17T16:53:44.691Z,67.20
2018-02-17T16:56:12.886Z,67.40
2018-02-17T16:58:41.837Z,69.00
2018-02-17T17:01:10.015Z,68.90
2018-02-17T17:03:38.185Z,68.40
2018-02-17T17:06:06.374Z,69.20
2018-02-17T17:08:34.566Z,68.80
2018-02-17T17:11:03.519Z,69.30
2018-02-17T17:13:31.708Z,69.20
2018-02-17T17:15:59.913Z,69.50
2018-02-17T17:18:28.883Z,70.10
2018-02-17T17:20:57.081Z,70.10
2018-02-17T17:23:26.026Z,70.30
2018-02-17T17:25:54.200Z,70.30
2018-02-17T17:28:22.388Z,70.70
2018-02-17T17:30:50.565Z,70.90
2018-02-17T17:33:18.749Z,70.60
2018-02-17T17:35:46.972Z,71.40
2018-02-17T17:38:15.227Z,71.50
2018-02-17T17:40:43.448Z,71.40
2018-02-17T17:43:11.625Z,70.90
2018-02-17T17:45:39.834Z,71.00
2018-02-17T17:48:08.014Z,71.40
2018-02-17T17:50:36.248Z,71.30
2018-02-17T17:53:04.440Z,71.60
2018-02-17T17:55:32.695Z,71.40
2018-02-17T17:58:00.903Z,71.50
2018-02-17T18:00:29.081Z,71.70
2018-02-17T18:02:57.264Z,71.80
2018-02-17T18:05:25.433Z,72.00
2018-02-17T18:07:53.610Z,72.00
2018-02-17T18:10:21.830Z,71.80
2018-02-17T18:12:50.011Z,72.50
2018-02-17T18:15:18.223Z,72.10
2018-02-17T18:17:46.401Z,72.20
2018-02-17T18:20:15.361Z,72.60
2018-02-17T18:22:43.542Z,72.50
2018-02-17T18:25:11.739Z,72.60
2018-02-17T18:27:39.988Z,72.90
2018-02-17T18:30:08.180Z,73.00
2018-02-17T18:32:37.173Z,73.40
2018-02-17T18:35:05.350Z,73.80
2018-02-17T18:37:33.524Z,73.80
2018-02-17T18:40:01.694Z,74.00
2018-02-17T18:42:29.872Z,74.00
2018-02-17T18:44:58.040Z,73.80
2018-02-17T18:47:26.220Z,73.90
2018-02-17T18:49:54.391Z,73.80
2018-02-17T18:52:22.578Z,74.00
2018-02-17T18:54:50.767Z,74.20
2018-02-17T18:57:18.950Z,74.30
2018-02-17T18:59:47.909Z,74.50
2018-02-17T19:02:16.089Z,74.50
2018-02-17T19:04:44.319Z,74.40
2018-02-17T19:07:12.504Z,74.50
2018-02-17T19:09:41.016Z,74.70
2018-02-17T19:12:09.247Z,74.70
2018-02-17T19:14:38.233Z,75.00
2018-02-17T19:17:06.490Z,74.80
2018-02-17T19:19:34.667Z,75.20
2018-02-17T19:22:02.879Z,76.00
2018-02-17T20:40:29.479Z,80.40
2018-02-17T20:42:57.703Z,80.30
2018-02-17T20:45:26.645Z,80.30
2018-02-17T20:47:54.805Z,80.10
2018-02-17T20:50:22.983Z,80.10
2018-02-17T20:52:51.163Z,80.00
2018-02-17T20:55:19.327Z,80.00
2018-02-17T20:57:47.507Z,79.90
2018-02-17T21:00:15.702Z,79.80
2018-02-17T21:02:43.895Z,79.60
2018-02-17T21:05:12.867Z,79.70
2018-02-17T21:07:41.065Z,79.60
2018-02-17T21:10:09.250Z,79.40
2018-02-17T21:12:37.496Z,79.20
2018-02-17T21:15:05.720Z,79.20
2018-02-17T21:17:33.926Z,79.60
2018-02-17T21:20:02.116Z,79.40
2018-02-17T21:22:30.282Z,79.30
2018-02-17T21:24:58.468Z,79.80
2018-02-17T21:27:26.646Z,79.00
2018-02-17T21:29:55.147Z,79.20
2018-02-17T21:32:23.726Z,79.10
2018-02-17T21:34:51.907Z,79.30
2018-02-17T21:37:20.081Z,79.40
2018-02-17T21:39:48.266Z,79.60
2018-02-17T21:42:17.212Z,79.50
2018-02-17T21:44:45.380Z,79.50
2018-02-17T21:47:13.589Z,79.40
2018-02-17T21:49:41.778Z,79.30
2018-02-17T21:52:10.739Z,79.40
2018-02-17T21:54:38.942Z,79.30
2018-02-17T21:57:07.128Z,79.50
2018-02-17T21:59:36.097Z,80.00
2018-02-17T22:02:04.272Z,79.80
2018-02-17T22:04:32.515Z,80.00
2018-02-17T22:07:00.696Z,80.10
2018-02-17T22:09:28.878Z,80.20
2018-02-17T22:11:57.049Z,80.50
2018-02-17T22:14:25.226Z,80.70
2018-02-17T22:16:54.446Z,80.60
2018-02-17T22:19:22.641Z,80.50
2018-02-17T22:21:51.622Z,80.60
2018-02-17T22:24:19.890Z,80.50
2018-02-17T22:26:48.029Z,80.90
2018-02-17T22:29:16.212Z,81.10
2018-02-17T22:31:44.387Z,81.20
2018-02-17T22:34:12.567Z,81.40
2018-02-17T22:36:40.758Z,81.60
2018-02-17T22:39:08.975Z,81.60
2018-02-17T22:41:37.907Z,81.80
2018-02-17T22:44:06.082Z,81.70
2018-02-17T22:46:34.258Z,82.60
2018-02-17T22:49:02.449Z,82.00
2018-02-17T22:51:30.650Z,82.00
2018-02-17T22:53:59.640Z,82.50
2018-02-17T22:56:28.623Z,82.40
2018-02-17T22:58:56.799Z,82.40
2018-02-17T23:01:24.991Z,83.00
2018-02-17T23:03:53.935Z,84.20
2018-02-17T23:06:22.138Z,84.10
2018-02-17T23:08:50.311Z,84.50
2018-02-17T23:11:18.487Z,84.70
2018-02-17T23:13:46.699Z,84.90
2018-02-17T23:16:14.904Z,84.90
2018-02-17T23:18:43.079Z,85.00
2018-02-17T23:21:11.356Z,84.80
2018-02-17T23:23:39.548Z,84.50
2018-02-17T23:26:07.731Z,84.40
2018-02-17T23:28:35.919Z,84.30
2018-02-17T23:31:04.098Z,84.40
2018-02-17T23:33:33.045Z,84.40
2018-02-17T23:36:01.243Z,84.40
2018-02-17T23:38:29.445Z,84.40
2018-02-17T23:40:58.398Z,84.60
2018-02-17T23:43:26.567Z,84.60
2018-02-17T23:45:54.755Z,84.50
2018-02-17T23:48:22.935Z,84.40
2018-02-17T23:50:51.103Z,84.50
2018-02-17T23:53:19.290Z,84.40
2018-02-17T23:55:47.475Z,84.40
2018-02-17T23:58:15.678Z,84.50
